Time;durP1;ratioP1;P1;durP2;ratioP2;P2;SDS_P1;SDS_P2;PMS_P1;PMS_P2;Temp;Humidity;BMP_temperature;BMP_pressure;BME280_temperature;BME280_humidity;BME280_pressure;Samples;Min_cycle;Max_cycle;Signal;HPM_P1;HPM_P2
2024/04/06 00:00:09;;;;;;;;;4.00;3.00;;;;;19.02;100.00;98540.88;6071694;28;99189;-63
2024/04/06 00:03:14;;;;;;;;;3.60;2.60;;;;;19.08;100.00;98545.19;6081595;28;96572;-62
2024/04/06 00:06:15;;;;;;;;;3.00;2.00;;;;;19.12;100.00;98549.00;6059412;28;96567;-62
2024/04/06 00:09:17;;;;;;;;;3.00;3.00;;;;;19.15;100.00;98547.63;6097281;28;96332;-61
2024/04/06 00:12:19;;;;;;;;;4.50;4.00;;;;;19.15;100.00;98545.72;6083755;28;96516;-62
2024/04/06 00:15:22;;;;;;;;;5.00;3.00;;;;;19.19;100.00;98543.22;6092379;28;96880;-62
2024/04/06 00:18:24;;;;;;;;;3.40;2.40;;;;;19.20;100.00;98542.13;6074835;28;98969;-62
2024/04/06 00:21:26;;;;;;;;;2.75;2.00;;;;;19.23;100.00;98536.06;6075700;28;96912;-62
2024/04/06 00:24:29;;;;;;;;;2.33;2.00;;;;;19.33;100.00;98538.72;6087122;28;97084;-62
2024/04/06 00:27:32;;;;;;;;;3.00;3.00;;;;;19.41;100.00;98544.38;6075626;28;98472;-62
2024/04/06 00:30:36;;;;;;;;;3.25;3.25;;;;;19.45;100.00;98541.91;6089577;28;99022;-62
2024/04/06 00:33:37;;;;;;;;;5.00;4.00;;;;;19.49;100.00;98534.78;6078331;28;100029;-62
2024/04/06 00:36:39;;;;;;;;;4.00;3.00;;;;;19.54;100.00;98523.78;6081602;28;96856;-62
2024/04/06 00:39:41;;;;;;;;;3.00;3.00;;;;;19.52;100.00;98533.38;6094923;28;96691;-62
2024/04/06 00:42:43;;;;;;;;;4.00;4.00;;;;;19.50;100.00;98524.66;6088332;28;97476;-62
2024/04/06 00:45:45;;;;;;;;;3.00;3.00;;;;;19.51;100.00;98527.09;6091356;28;96791;-62
2024/04/06 00:48:48;;;;;;;;;3.60;3.00;;;;;19.46;100.00;98527.13;6088252;28;96969;-62
2024/04/06 00:51:50;;;;;;;;;3.00;2.50;;;;;19.50;100.00;98533.66;6096550;28;96517;-62
2024/04/06 00:54:51;;;;;;;;;4.00;3.60;;;;;19.46;100.00;98527.13;6090777;28;96582;-62
2024/04/06 00:57:54;;;;;;;;;3.00;3.00;;;;;19.43;100.00;98516.75;6082889;28;96928;-62
2024/04/06 01:00:56;;;;;;;;;2.00;1.00;;;;;19.51;100.00;98521.63;6083772;28;96802;-65
2024/04/06 01:03:59;;;;;;;;;3.00;3.00;;;;;19.39;100.00;98516.53;6098172;23;98405;-57
2024/04/06 01:10:41;;;;;;;;;3.60;3.00;;;;;19.58;100.00;98524.03;6058825;28;97174;-58
2024/04/06 01:13:43;;;;;;;;;4.00;3.40;;;;;19.61;100.00;98523.44;6148383;23;97195;-58
2024/04/06 01:16:46;;;;;;;;;2.00;2.00;;;;;19.61;100.00;98529.72;6812247;23;98465;-57
2024/04/06 01:23:26;;;;;;;;;3.75;3.00;;;;;19.72;100.00;98527.69;6417095;22;98205;-58
2024/04/06 01:30:13;;;;;;;;;2.00;1.00;;;;;19.79;100.00;98517.25;7330487;23;98897;-58
2024/04/06 01:33:43;;;;;;;;;3.40;3.40;;;;;19.86;100.00;98547.78;6175687;23;97110;31
2024/04/06 01:41:00;;;;;;;;;3.00;3.00;;;;;19.53;100.00;98485.78;6260378;22;98023;31
2024/04/06 01:48:11;;;;;;;;;3.00;3.00;;;;;20.04;100.00;98533.34;7465829;22;99639;31
2024/04/06 01:51:13;;;;;;;;;3.80;3.00;;;;;20.10;100.00;98545.88;6845950;23;98612;-57
2024/04/06 01:54:19;;;;;;;;;2.50;2.00;;;;;20.12;100.00;98538.19;6709768;22;98965;31
2024/04/06 01:57:20;;;;;;;;;3.00;3.00;;;;;20.15;100.00;98543.06;6080753;28;96599;-58
2024/04/06 02:03:46;;;;;;;;;3.00;2.20;;;;;20.13;100.00;98549.97;6544095;23;98676;-58
2024/04/06 02:06:58;;;;;;;;;4.25;4.00;;;;;20.11;100.00;98557.63;7101252;22;98579;31
2024/04/06 02:13:37;;;;;;;;;4.00;3.00;;;;;19.98;100.00;98550.94;6661425;23;99092;-58
2024/04/06 02:16:48;;;;;;;;;4.60;3.00;;;;;20.01;100.00;98555.00;6160393;23;98727;-86
2024/04/06 02:19:52;;;;;;;;;3.60;3.60;;;;;19.68;100.00;98540.31;6019846;28;96576;-85
2024/04/06 02:22:55;;;;;;;;;6.00;5.00;;;;;20.02;100.00;98582.09;6017829;28;96551;-86
2024/04/06 02:25:57;;;;;;;;;4.00;4.00;;;;;19.54;100.00;98512.84;6040719;28;96250;-86
2024/04/06 02:29:00;;;;;;;;;6.00;5.00;;;;;19.67;100.00;98561.38;6017013;28;96510;-86
2024/04/06 02:32:03;;;;;;;;;6.00;6.00;;;;;19.45;100.00;98498.16;6025027;29;99008;-86
2024/04/06 02:35:08;;;;;;;;;6.00;6.00;;;;;19.98;100.00;98589.25;6027288;29;97647;-87
2024/04/06 02:38:11;;;;;;;;;5.80;4.80;;;;;19.98;100.00;98588.44;6037044;28;97051;-86
2024/04/06 02:41:13;;;;;;;;;6.60;6.00;;;;;19.74;100.00;98583.72;6031111;28;97334;-87
2024/04/06 02:44:16;;;;;;;;;5.00;5.00;;;;;19.89;100.00;98585.50;6013846;29;96846;-86
2024/04/06 02:47:19;;;;;;;;;5.00;4.33;;;;;19.80;100.00;98579.84;6038110;28;99029;-88
2024/04/06 02:50:23;;;;;;;;;5.00;4.00;;;;;19.43;100.00;98555.84;6023962;29;96931;-85
2024/04/06 02:53:25;;;;;;;;;6.00;5.00;;;;;19.49;100.00;98570.31;6020618;28;96888;-86
2024/04/06 02:56:27;;;;;;;;;6.40;5.00;;;;;19.67;100.00;98602.41;6035020;28;96928;-85
2024/04/06 02:59:30;;;;;;;;;5.00;4.00;;;;;19.67;100.00;98615.25;6041003;28;96564;-87
2024/04/06 03:02:33;;;;;;;;;6.00;5.75;;;;;19.40;100.00;98586.47;6023276;29;96922;-86
2024/04/06 03:05:36;;;;;;;;;6.40;6.00;;;;;19.16;100.00;98554.69;6024957;28;96976;-86
2024/04/06 03:08:39;;;;;;;;;5.00;5.00;;;;;19.08;100.00;98568.97;6031657;28;97156;-86
2024/04/06 03:11:42;;;;;;;;;7.60;7.00;;;;;19.41;100.00;98592.75;6016626;28;97501;-86
2024/04/06 03:14:45;;;;;;;;;6.00;5.60;;;;;19.40;100.00;98616.53;6032653;28;96528;-88
2024/04/06 03:17:46;;;;;;;;;4.00;4.00;;;;;19.54;100.00;98644.09;6013100;29;96625;-88
2024/04/06 03:20:53;;;;;;;;;6.80;5.80;;;;;19.60;100.00;98639.38;6047622;28;96894;-88
2024/04/06 03:23:55;;;;;;;;;5.60;4.60;;;;;19.44;100.00;98627.78;5998863;28;96344;-85
2024/04/06 03:26:58;;;;;;;;;4.40;4.00;;;;;19.62;100.00;98643.47;6041673;23;98570;-58
2024/04/06 03:29:59;;;;;;;;;6.00;5.00;;;;;19.82;100.00;98659.72;6025007;28;96664;-59
2024/04/06 03:36:40;;;;;;;;;4.00;4.00;;;;;19.86;100.00;98685.41;6814080;23;98578;-59
2024/04/06 03:58:47;;;;;;;;;3.00;3.00;;;;;19.88;100.00;98691.41;7426925;23;99025;31
2024/04/06 04:13:19;;;;;;;;;4.67;3.00;;;;;19.88;100.00;98704.25;6832303;22;98333;31
2024/04/06 04:38:33;;;;;;;;;3.60;3.60;;;;;19.63;100.00;98709.94;6079461;28;97200;-85
2024/04/06 04:41:36;;;;;;;;;3.75;3.00;;;;;19.67;100.00;98713.72;6071290;28;96505;-86
2024/04/06 04:44:38;;;;;;;;;4.00;4.00;;;;;19.28;100.00;98695.38;6081851;28;96893;-86
2024/04/06 04:47:42;;;;;;;;;3.00;3.00;;;;;19.36;100.00;98726.75;6058697;28;99239;-86
2024/04/06 04:50:45;;;;;;;;;3.00;3.00;;;;;19.54;100.00;98753.47;6059987;28;99356;-87
2024/04/06 04:53:49;;;;;;;;;3.60;3.60;;;;;19.34;100.00;98727.03;6075516;28;97372;-86
2024/04/06 04:56:53;;;;;;;;;3.00;3.00;;;;;19.36;100.00;98743.97;6033271;28;96609;-86
2024/04/06 04:59:54;;;;;;;;;3.80;3.20;;;;;19.24;100.00;98748.16;6053254;28;96897;-88
2024/04/06 05:02:59;;;;;;;;;4.00;3.40;;;;;19.46;100.00;98778.66;6060018;28;96691;-86
2024/04/06 05:06:01;;;;;;;;;4.00;4.00;;;;;19.35;100.00;98788.00;6044136;28;96374;-86
2024/04/06 05:09:06;;;;;;;;;3.00;3.00;;;;;19.45;100.00;98788.78;6042487;28;98791;-86
2024/04/06 05:12:08;;;;;;;;;3.00;3.00;;;;;18.82;100.00;98693.97;6048443;28;96407;-86
2024/04/06 05:15:11;;;;;;;;;4.00;3.25;;;;;19.37;100.00;98775.69;6061496;28;96814;-86
2024/04/06 05:18:13;;;;;;;;;3.00;3.00;;;;;19.43;100.00;98803.81;6046003;28;96453;-86
2024/04/06 05:21:17;;;;;;;;;2.50;2.50;;;;;18.40;100.00;98648.78;6061000;28;96922;-88
2024/04/06 05:24:21;;;;;;;;;4.00;3.00;;;;;19.33;100.00;98780.06;6046281;28;97081;-87
2024/04/06 05:27:24;;;;;;;;;4.00;3.00;;;;;19.48;100.00;98812.03;6042830;28;97683;-87
2024/04/06 05:30:28;;;;;;;;;3.20;3.20;;;;;19.11;100.00;98759.69;6059469;28;97422;-86
2024/04/06 05:33:30;;;;;;;;;3.00;3.00;;;;;19.14;100.00;98786.44;6074524;28;96816;-86
2024/04/06 05:36:33;;;;;;;;;4.00;3.00;;;;;19.17;100.00;98800.38;6075269;28;96864;-86
2024/04/06 05:39:36;;;;;;;;;4.00;3.00;;;;;19.22;100.00;98799.53;6075539;28;96321;-86
2024/04/06 05:42:39;;;;;;;;;4.00;3.00;;;;;19.38;100.00;98834.72;6061371;28;96556;-86
2024/04/06 05:45:42;;;;;;;;;4.25;4.25;;;;;19.40;100.00;98824.31;6052578;28;97104;-86
2024/04/06 05:48:45;;;;;;;;;4.00;4.00;;;;;19.37;100.00;98810.41;6044131;28;96859;-88
2024/04/06 05:51:47;;;;;;;;;4.00;4.00;;;;;18.70;100.00;98697.03;6062471;28;97387;-87
2024/04/06 05:54:51;;;;;;;;;5.00;4.00;;;;;19.00;100.00;98746.06;6045867;28;97186;-86
2024/04/06 05:57:57;;;;;;;;;5.00;4.00;;;;;18.85;100.00;98734.38;6053259;28;97114;-86
2024/04/06 06:01:00;;;;;;;;;3.40;3.00;;;;;19.64;100.00;98846.41;6037395;28;97525;-85
2024/04/06 06:04:03;;;;;;;;;4.00;3.40;;;;;19.45;100.00;98816.13;6046809;28;96959;-87
2024/04/06 06:07:05;;;;;;;;;4.00;4.00;;;;;19.74;100.00;98883.81;6041504;28;97375;-86
2024/04/06 06:10:11;;;;;;;;;5.00;5.00;;;;;18.69;100.00;98684.47;6058678;28;96681;-86
2024/04/06 06:13:14;;;;;;;;;3.00;3.00;;;;;19.64;100.00;98837.38;6076762;28;96559;-89
2024/04/06 06:16:16;;;;;;;;;4.00;4.00;;;;;19.90;100.00;98861.56;6058022;28;97182;-88
2024/04/06 06:19:19;;;;;;;;;3.00;3.00;;;;;19.62;100.00;98829.44;6086228;23;98424;-89
2024/04/06 06:22:23;;;;;;;;;4.00;3.40;;;;;19.78;100.00;98835.66;6044005;28;96792;-87
2024/04/06 06:25:26;;;;;;;;;4.00;3.00;;;;;19.83;100.00;98847.38;6043754;28;96928;-88
2024/04/06 06:28:29;;;;;;;;;4.60;4.00;;;;;19.91;100.00;98837.75;6036228;28;97021;-87
2024/04/06 06:31:31;;;;;;;;;4.00;3.00;;;;;19.89;100.00;98824.34;6043063;28;96351;-86
2024/04/06 06:34:33;;;;;;;;;4.00;4.00;;;;;20.30;100.00;98873.34;6033392;28;96634;-86
2024/04/06 06:37:35;;;;;;;;;4.00;4.00;;;;;20.20;100.00;98849.59;6041896;28;96377;-86
2024/04/06 06:40:40;;;;;;;;;4.00;3.00;;;;;20.43;100.00;98860.97;6060602;28;99048;-86
2024/04/06 06:43:42;;;;;;;;;3.20;3.00;;;;;20.73;100.00;98869.72;6043795;28;97114;-85
2024/04/06 06:58:34;;;;;;;;;5.00;4.00;;;;;21.63;100.00;98890.97;6120947;28;97064;-89
2024/04/06 07:01:47;;;;;;;;;4.00;4.00;;;;;21.78;100.00;98899.03;6083686;28;96344;-89
2024/04/06 07:05:12;;;;;;;;;3.00;3.00;;;;;21.88;100.00;98901.63;6097198;28;96802;-88
2024/04/06 07:08:19;;;;;;;;;3.00;3.00;;;;;21.96;100.00;98859.00;6096397;28;96979;-87
2024/04/06 07:11:24;;;;;;;;;4.00;4.00;;;;;22.24;100.00;98873.66;6093118;28;96395;-88
2024/04/06 07:14:33;;;;;;;;;4.00;3.40;;;;;22.36;100.00;98868.56;6063743;28;96929;-88
2024/04/06 07:17:38;;;;;;;;;4.60;4.00;;;;;22.66;100.00;98898.28;6087433;23;97662;-60
2024/04/06 07:20:39;;;;;;;;;4.00;3.50;;;;;22.82;100.00;98898.88;6053495;28;96976;-60
2024/04/06 07:23:41;;;;;;;;;4.40;4.00;;;;;23.09;100.00;98901.69;6071698;28;96419;-60
2024/04/06 07:26:43;;;;;;;;;5.00;4.00;;;;;23.25;100.00;98893.97;6074358;28;97266;-59
2024/04/06 07:29:46;;;;;;;;;5.00;4.00;;;;;23.43;100.00;98892.22;6074560;28;96682;-58
2024/04/06 07:32:48;;;;;;;;;3.00;3.00;;;;;23.85;100.00;98908.44;6089305;28;96302;-59
2024/04/06 07:35:50;;;;;;;;;5.00;3.00;;;;;24.32;100.00;98907.16;6071299;28;96430;-58
2024/04/06 07:38:52;;;;;;;;;3.00;3.00;;;;;24.81;100.00;98916.44;6070940;28;96924;-59
2024/04/06 07:41:53;;;;;;;;;5.00;4.00;;;;;25.23;100.00;98904.88;6074956;28;96300;-58
2024/04/06 07:44:57;;;;;;;;;5.00;4.00;;;;;25.63;100.00;98905.72;6069210;28;96315;-59
2024/04/06 07:47:58;;;;;;;;;6.00;4.00;;;;;25.98;100.00;98905.81;6072548;28;96367;-59
2024/04/06 07:51:00;;;;;;;;;6.00;6.00;;;;;26.23;100.00;98903.13;6069782;28;96972;-59
2024/04/06 07:54:02;;;;;;;;;5.00;5.00;;;;;26.75;100.00;98903.09;6073600;28;96372;-59
2024/04/06 07:57:05;;;;;;;;;5.00;4.80;;;;;27.08;100.00;98911.69;6071754;28;96501;-60
2024/04/06 08:00:09;;;;;;;;;4.60;4.00;;;;;27.64;100.00;98909.72;6065156;28;96919;-60
2024/04/06 08:03:11;;;;;;;;;4.00;4.00;;;;;28.16;100.00;98916.59;6057164;28;96991;-59
2024/04/06 08:06:16;;;;;;;;;5.00;4.00;;;;;28.58;98.53;98909.13;6073745;28;96775;-59
2024/04/06 08:09:19;;;;;;;;;4.00;4.00;;;;;28.88;94.42;98912.63;6053983;28;96619;-59
2024/04/06 08:12:20;;;;;;;;;5.00;4.00;;;;;29.13;90.72;98903.19;6068682;28;96816;-57
2024/04/06 08:15:24;;;;;;;;;3.20;3.20;;;;;29.68;89.68;98913.03;6071886;28;96357;-57
2024/04/06 08:18:25;;;;;;;;;6.00;6.00;;;;;30.24;87.88;98905.72;6049786;28;96267;-57
2024/04/06 08:21:28;;;;;;;;;5.00;4.75;;;;;31.11;83.67;98896.72;6073648;28;96671;-57
2024/04/06 08:24:29;;;;;;;;;4.75;4.25;;;;;31.91;78.12;98897.19;6077977;28;96380;-58
2024/04/06 08:27:34;;;;;;;;;4.00;3.80;;;;;32.36;74.59;98901.41;6073481;28;96103;-57
2024/04/06 08:30:37;;;;;;;;;5.00;4.60;;;;;32.59;73.01;98905.91;6050624;28;96466;-57
2024/04/06 08:33:39;;;;;;;;;3.00;3.00;;;;;32.41;67.27;98889.94;6059350;28;96330;-58
2024/04/06 08:36:41;;;;;;;;;4.50;3.00;;;;;32.57;65.62;98907.44;6069883;28;96668;-58
2024/04/06 08:39:43;;;;;;;;;3.00;3.00;;;;;32.50;67.43;98910.88;6070192;28;96547;-57
2024/04/06 08:42:46;;;;;;;;;4.00;4.00;;;;;32.23;66.88;98907.13;6070460;28;97151;-57
2024/04/06 08:45:50;;;;;;;;;4.00;3.25;;;;;31.81;66.15;98906.88;6058234;28;96334;-59
2024/04/06 08:48:52;;;;;;;;;4.40;3.40;;;;;31.67;67.40;98903.75;6053400;28;96554;-58
2024/04/06 08:51:57;;;;;;;;;3.00;3.00;;;;;31.46;67.74;98908.78;6072838;28;96347;-58
2024/04/06 08:54:58;;;;;;;;;3.00;3.00;;;;;31.28;69.34;98891.59;6072632;28;96374;-58
2024/04/06 08:58:01;;;;;;;;;4.00;4.00;;;;;31.11;68.47;98921.78;6060595;28;96491;-58
2024/04/06 09:01:04;;;;;;;;;3.00;3.00;;;;;31.07;70.05;98915.31;6051497;28;96731;-58
2024/04/06 09:04:07;;;;;;;;;4.00;3.00;;;;;31.41;70.07;98923.00;6054678;28;96806;-58
2024/04/06 09:07:08;;;;;;;;;3.00;2.00;;;;;31.78;69.07;98915.19;6063082;28;96932;-57
2024/04/06 09:10:11;;;;;;;;;3.00;3.00;;;;;32.02;68.89;98912.16;6059011;28;96788;-58
2024/04/06 09:13:12;;;;;;;;;3.00;3.00;;;;;31.66;67.88;98916.09;6067410;28;97568;-58
2024/04/06 09:16:16;;;;;;;;;4.00;3.00;;;;;31.31;70.22;98915.16;6063219;28;98346;-58
2024/04/06 09:19:17;;;;;;;;;3.00;3.00;;;;;30.84;70.71;98901.09;6066541;28;96255;-57
2024/04/06 09:22:20;;;;;;;;;3.00;2.25;;;;;30.43;71.54;98897.53;6073167;28;96364;-57
2024/04/06 09:25:21;;;;;;;;;4.50;3.50;;;;;30.05;73.32;98881.31;6087560;28;96808;-58
2024/04/06 09:28:24;;;;;;;;;2.00;2.00;;;;;29.59;75.17;98892.88;6093547;28;96390;-58
2024/04/06 09:31:28;;;;;;;;;3.00;2.00;;;;;28.98;76.60;98901.06;6094503;28;96271;-58
2024/04/06 09:34:31;;;;;;;;;2.00;2.00;;;;;28.52;80.18;98896.59;6086124;28;96311;-57
2024/04/06 09:37:34;;;;;;;;;4.00;3.80;;;;;28.34;83.62;98909.81;6089655;28;96875;-58
2024/04/06 09:40:37;;;;;;;;;3.00;2.00;;;;;28.29;84.81;98917.50;6089122;28;96820;-58
2024/04/06 09:43:40;;;;;;;;;3.00;3.00;;;;;28.16;87.03;98911.06;6090656;28;96838;-57
2024/04/06 09:46:44;;;;;;;;;6.00;4.60;;;;;27.66;85.28;98927.63;6098325;28;96371;-58
2024/04/06 09:49:49;;;;;;;;;4.00;3.60;;;;;27.65;88.51;98925.19;6098060;28;97033;-58
2024/04/06 09:52:51;;;;;;;;;4.60;4.00;;;;;27.55;86.54;98901.47;6108060;28;96372;-58
2024/04/06 09:55:55;;;;;;;;;3.00;3.00;;;;;27.33;89.11;98908.03;6095663;28;96867;-57
2024/04/06 09:58:56;;;;;;;;;5.00;4.00;;;;;27.34;90.85;98914.38;6092892;28;96225;-58
2024/04/06 10:01:59;;;;;;;;;3.00;3.00;;;;;27.02;90.21;98924.91;6080709;28;98603;-58
2024/04/06 10:05:05;;;;;;;;;3.00;3.00;;;;;27.09;90.61;98924.38;6096245;28;97389;-58
2024/04/06 10:08:07;;;;;;;;;6.00;5.00;;;;;27.28;91.63;98919.28;6096325;28;96561;-58
2024/04/06 10:11:11;;;;;;;;;4.00;4.00;;;;;27.48;90.32;98915.78;6066769;28;96504;-58
2024/04/06 10:14:14;;;;;;;;;5.00;4.00;;;;;27.75;87.29;98919.28;6088747;28;96333;-58
2024/04/06 10:17:17;;;;;;;;;4.00;3.00;;;;;27.91;87.52;98923.09;6085254;28;96340;-58
2024/04/06 10:20:22;;;;;;;;;3.00;3.00;;;;;28.84;83.94;98915.25;6087755;28;96642;-58
2024/04/06 10:23:25;;;;;;;;;5.50;5.00;;;;;29.84;77.56;98913.94;6097000;28;96133;-58
2024/04/06 10:26:26;;;;;;;;;4.00;3.00;;;;;30.38;75.04;98919.22;6094959;28;96314;-58
2024/04/06 10:29:29;;;;;;;;;3.00;3.00;;;;;30.77;73.95;98920.41;6090123;28;96444;-58
2024/04/06 10:32:33;;;;;;;;;3.00;3.00;;;;;30.67;71.28;98915.34;6093957;28;96712;-59
2024/04/06 10:35:36;;;;;;;;;4.00;4.00;;;;;30.87;71.71;98914.34;6201575;23;98225;-58
2024/04/06 10:38:38;;;;;;;;;4.20;4.00;;;;;31.76;71.10;98903.59;6120050;28;96348;-58
2024/04/06 10:41:42;;;;;;;;;6.00;5.00;;;;;32.24;66.93;98897.59;6195427;23;99229;-58
2024/04/06 10:44:43;;;;;;;;;10.50;10.00;;;;;33.00;64.58;98903.53;6107999;28;96316;-58
2024/04/06 10:47:47;;;;;;;;;5.20;4.80;;;;;33.53;61.93;98898.16;6091976;28;96989;-59
2024/04/06 10:50:49;;;;;;;;;3.50;3.00;;;;;33.28;62.27;98887.34;6097682;28;96200;-58
2024/04/06 10:53:51;;;;;;;;;3.00;2.80;;;;;33.08;62.12;98908.91;6086344;28;96473;-58
2024/04/06 10:56:52;;;;;;;;;3.00;3.00;;;;;32.40;63.73;98897.50;6075386;28;96283;-59
2024/04/06 10:59:55;;;;;;;;;4.40;4.00;;;;;31.76;64.70;98900.81;6209347;23;98618;-58
2024/04/06 11:03:01;;;;;;;;;3.00;3.00;;;;;31.05;68.38;98895.34;6110914;28;96222;-58
2024/04/06 11:06:03;;;;;;;;;3.00;3.00;;;;;30.78;70.05;98908.13;6105649;28;96607;-60
2024/04/06 11:09:15;;;;;;;;;3.33;3.33;;;;;30.56;70.55;98895.56;6343187;23;98436;31
2024/04/06 11:12:18;;;;;;;;;4.00;3.00;;;;;30.29;71.41;98897.13;6054203;28;97759;-58
2024/04/06 11:15:22;;;;;;;;;4.00;3.00;;;;;30.22;73.20;98904.44;6496678;23;98465;-60
2024/04/06 11:18:26;;;;;;;;;5.40;5.40;;;;;30.11;75.81;98890.19;6117824;28;96257;-60
2024/04/06 11:21:28;;;;;;;;;3.00;3.00;;;;;30.25;74.46;98885.06;6125991;28;96659;-60
2024/04/06 11:24:30;;;;;;;;;4.00;3.40;;;;;30.65;73.38;98887.84;6206132;23;98061;-59
2024/04/06 11:27:31;;;;;;;;;4.00;3.00;;;;;31.58;69.94;98885.59;6140599;28;96230;-59
2024/04/06 11:30:33;;;;;;;;;4.00;3.50;;;;;32.80;64.42;98890.78;6161335;23;1340711;-58
2024/04/06 11:33:36;;;;;;;;;5.00;5.00;;;;;34.07;61.70;98887.44;6137016;28;96353;-59
2024/04/06 11:36:38;;;;;;;;;4.00;4.00;;;;;34.08;60.34;98889.06;6137279;28;96338;-58
2024/04/06 11:39:40;;;;;;;;;5.00;4.00;;;;;33.99;59.82;98882.13;6106236;28;96310;-60
2024/04/06 11:42:42;;;;;;;;;9.00;7.00;;;;;34.05;59.67;98878.63;6112203;28;96578;-60
2024/04/06 11:45:43;;;;;;;;;5.00;5.00;;;;;33.97;58.81;98881.69;6098357;28;96820;-59
2024/04/06 11:48:47;;;;;;;;;6.00;6.00;;;;;33.76;59.63;98869.03;6080640;28;97828;-60
2024/04/06 11:51:48;;;;;;;;;6.60;6.00;;;;;33.64;60.34;98876.75;6087264;28;96678;-60
2024/04/06 11:54:51;;;;;;;;;3.00;3.00;;;;;33.48;58.74;98874.91;6078969;28;96302;-59
2024/04/06 11:57:52;;;;;;;;;4.00;3.00;;;;;33.37;59.75;98864.75;6092615;28;96793;-60
2024/04/06 12:00:54;;;;;;;;;3.00;3.00;;;;;33.82;59.67;98858.28;6076929;28;97584;-59
2024/04/06 12:03:57;;;;;;;;;2.00;2.00;;;;;34.55;59.69;98832.53;6067966;28;96638;-60
2024/04/06 12:07:00;;;;;;;;;2.20;2.20;;;;;35.27;53.44;98862.16;6088306;28;97119;-60
2024/04/06 12:10:01;;;;;;;;;2.00;2.00;;;;;35.26;52.64;98854.94;6082565;28;96493;-60
2024/04/06 12:13:04;;;;;;;;;3.00;3.00;;;;;35.06;54.31;98863.53;6060817;28;98623;-60
2024/04/06 12:16:05;;;;;;;;;4.00;4.00;;;;;34.81;54.67;98856.06;6079813;28;96776;-60
2024/04/06 12:19:10;;;;;;;;;5.00;4.00;;;;;34.39;56.31;98851.53;6076852;28;96605;-60
2024/04/06 12:22:11;;;;;;;;;3.60;3.00;;;;;33.74;56.18;98859.38;6080504;28;97125;-60
2024/04/06 12:25:14;;;;;;;;;2.00;2.00;;;;;33.41;57.87;98849.66;6078405;28;96630;-60
2024/04/06 12:28:15;;;;;;;;;2.50;2.50;;;;;32.91;58.09;98845.13;6090046;28;98113;-60
2024/04/06 12:31:18;;;;;;;;;3.00;3.00;;;;;32.79;60.25;98850.91;6076458;28;96323;-60
2024/04/06 12:34:21;;;;;;;;;2.00;2.00;;;;;32.69;59.51;98857.09;6086502;28;96712;-59
2024/04/06 12:37:23;;;;;;;;;3.00;3.00;;;;;32.18;59.77;98861.97;6080827;28;96408;-60
2024/04/06 12:40:26;;;;;;;;;2.75;2.75;;;;;32.10;59.61;98849.84;6087885;28;96595;-60
2024/04/06 12:43:28;;;;;;;;;3.00;3.00;;;;;32.03;60.23;98834.91;6082967;28;97569;-60
2024/04/06 12:46:29;;;;;;;;;10.00;9.00;;;;;32.25;60.81;98848.19;6085679;28;96432;-60
2024/04/06 12:49:33;;;;;;;;;3.40;3.00;;;;;32.06;60.28;98845.34;6090589;28;97455;-60
2024/04/06 12:52:34;;;;;;;;;3.75;3.75;;;;;31.97;59.95;98847.50;6111022;28;96299;-58
2024/04/06 12:55:36;;;;;;;;;2.40;2.40;;;;;31.48;60.50;98845.13;6116660;28;96242;-60
2024/04/06 12:58:38;;;;;;;;;3.00;2.60;;;;;31.40;61.38;98844.16;6119653;28;96369;-58
2024/04/06 13:01:40;;;;;;;;;3.00;3.00;;;;;31.17;63.88;98834.84;6116322;28;96294;-58
2024/04/06 13:04:42;;;;;;;;;3.00;3.00;;;;;31.15;63.42;98859.44;6114680;28;96346;-58
2024/04/06 13:07:46;;;;;;;;;4.00;3.50;;;;;30.94;64.62;98858.84;6093497;28;96477;-57
2024/04/06 13:10:47;;;;;;;;;3.00;3.00;;;;;30.77;65.25;98843.28;6117711;28;96362;-58
2024/04/06 13:13:50;;;;;;;;;3.00;2.00;;;;;30.37;66.17;98853.63;6213109;23;98119;-59
2024/04/06 13:16:51;;;;;;;;;4.00;3.00;;;;;30.01;67.63;98863.69;6090131;28;96353;-58
2024/04/06 13:19:55;;;;;;;;;3.00;2.00;;;;;29.80;69.57;98857.44;6098199;28;96552;-57
2024/04/06 13:22:58;;;;;;;;;6.00;5.00;;;;;29.40;70.69;98837.91;6213395;23;98224;-59
2024/04/06 13:25:59;;;;;;;;;3.40;3.40;;;;;28.98;73.20;98855.88;6257569;23;98212;-57
2024/04/06 13:29:03;;;;;;;;;4.75;4.75;;;;;28.39;76.77;98858.88;6103966;28;96723;-58
2024/04/06 13:32:05;;;;;;;;;4.00;4.00;;;;;27.97;78.94;98841.38;6796816;22;98845;-59
2024/04/06 13:35:09;;;;;;;;;3.00;2.00;;;;;27.61;81.10;98860.56;6515051;22;98902;-58
2024/04/06 13:41:56;;;;;;;;;3.00;2.60;;;;;26.74;88.30;98855.25;6703382;23;98816;-59
2024/04/06 13:44:57;;;;;;;;;4.00;3.40;;;;;26.39;92.74;98858.41;6117463;28;96320;-59
2024/04/06 13:48:00;;;;;;;;;5.00;5.00;;;;;26.09;95.36;98849.13;6492710;23;99448;-59
2024/04/06 13:51:03;;;;;;;;;4.00;3.00;;;;;25.82;97.63;98864.00;6223664;23;99030;-59
2024/04/06 13:54:06;;;;;;;;;5.00;4.20;;;;;25.73;99.60;98855.72;6176259;22;97097;-58
2024/04/06 13:57:08;;;;;;;;;3.00;3.00;;;;;25.51;100.00;98858.53;6169088;23;97605;-60
2024/04/06 14:00:12;;;;;;;;;2.00;2.00;;;;;25.31;100.00;98846.16;6095186;28;96895;-57
2024/04/06 14:03:13;;;;;;;;;3.60;3.00;;;;;25.31;100.00;98853.63;6074350;28;96847;-60
2024/04/06 14:06:17;;;;;;;;;4.00;3.25;;;;;25.29;100.00;98855.88;6055448;28;96899;-60
2024/04/06 14:09:19;;;;;;;;;3.00;3.00;;;;;25.19;100.00;98850.66;6069032;28;96453;-60
2024/04/06 14:12:22;;;;;;;;;3.00;3.00;;;;;25.08;100.00;98854.81;6073547;28;96647;-60
2024/04/06 14:15:25;;;;;;;;;3.25;3.00;;;;;24.91;100.00;98841.75;6088963;28;97059;-60
2024/04/06 14:18:28;;;;;;;;;4.60;4.00;;;;;25.06;100.00;98846.06;6055410;28;96913;-60
2024/04/06 14:21:30;;;;;;;;;2.80;2.80;;;;;25.14;100.00;98845.25;6085684;28;97156;-60
2024/04/06 14:24:33;;;;;;;;;3.00;3.00;;;;;25.40;100.00;98854.47;6068433;28;96907;-60
2024/04/06 14:27:35;;;;;;;;;3.40;3.40;;;;;25.37;100.00;98835.78;6068831;28;96614;-60
2024/04/06 14:30:37;;;;;;;;;5.00;4.75;;;;;25.49;100.00;98846.22;6073253;28;97125;-60
2024/04/06 14:33:38;;;;;;;;;5.00;4.00;;;;;25.45;100.00;98852.38;6049019;28;96560;-60
2024/04/06 14:36:44;;;;;;;;;3.80;3.80;;;;;25.38;100.00;98860.31;6067549;28;96863;-60
2024/04/06 14:39:45;;;;;;;;;2.75;2.75;;;;;25.22;100.00;98847.25;6067053;28;98028;-60
2024/04/06 14:42:49;;;;;;;;;5.00;5.00;;;;;25.21;100.00;98837.34;6073150;28;96864;-60
2024/04/06 14:45:50;;;;;;;;;4.00;3.20;;;;;25.12;100.00;98840.06;6064495;28;96641;-59
2024/04/06 14:48:53;;;;;;;;;4.00;4.00;;;;;25.06;100.00;98841.34;6086179;28;96331;-59
2024/04/06 14:51:55;;;;;;;;;3.50;3.50;;;;;24.93;100.00;98845.81;6064262;28;99592;-59
2024/04/06 14:54:58;;;;;;;;;3.00;3.00;;;;;25.06;100.00;98848.81;6077705;28;97065;-58
2024/04/06 14:58:00;;;;;;;;;2.60;2.60;;;;;24.98;100.00;98845.69;6077506;28;97264;-59
2024/04/06 15:01:02;;;;;;;;;3.00;2.00;;;;;24.98;100.00;98856.72;6064779;28;96891;-59
2024/04/06 15:04:05;;;;;;;;;3.00;2.20;;;;;24.98;100.00;98861.41;6086159;28;96974;-59
2024/04/06 15:07:09;;;;;;;;;3.00;3.00;;;;;25.06;100.00;98862.59;6052547;28;97258;-60
2024/04/06 15:10:11;;;;;;;;;3.60;3.00;;;;;25.12;100.00;98872.38;6057250;28;98982;-59
2024/04/06 15:13:14;;;;;;;;;3.00;3.00;;;;;25.05;100.00;98866.47;6089336;28;96558;-59
2024/04/06 15:16:15;;;;;;;;;2.00;2.00;;;;;25.02;100.00;98856.91;6064016;28;96645;-59
2024/04/06 15:19:18;;;;;;;;;2.80;2.80;;;;;25.06;100.00;98859.84;6072929;28;96496;-59
2024/04/06 15:22:22;;;;;;;;;4.00;4.00;;;;;24.99;100.00;98857.53;6090914;28;96850;-59
2024/04/06 15:25:23;;;;;;;;;4.00;4.00;;;;;24.89;100.00;98858.63;6064002;28;96888;-59
2024/04/06 15:28:25;;;;;;;;;4.00;3.00;;;;;24.87;100.00;98865.59;6080905;28;96509;-59
2024/04/06 15:31:26;;;;;;;;;4.00;4.00;;;;;24.77;100.00;98866.63;6063568;28;96728;-59
2024/04/06 15:34:29;;;;;;;;;4.00;3.25;;;;;24.74;100.00;98867.25;6078832;28;96941;-59
2024/04/06 15:37:31;;;;;;;;;3.00;3.00;;;;;24.76;100.00;98859.50;6081423;28;96663;-59
2024/04/06 15:40:35;;;;;;;;;4.20;3.20;;;;;24.70;100.00;98874.53;6064530;28;96617;-59
2024/04/06 15:43:36;;;;;;;;;4.40;4.00;;;;;24.64;100.00;98866.69;6080945;28;96387;-60
2024/04/06 15:46:39;;;;;;;;;5.00;4.00;;;;;24.51;100.00;98865.63;6063136;28;96502;-59
2024/04/06 15:49:41;;;;;;;;;4.25;4.25;;;;;24.36;100.00;98857.75;6065370;28;96395;-59
2024/04/06 15:52:44;;;;;;;;;2.60;2.60;;;;;24.42;100.00;98865.59;6053823;28;99613;-59